createdAt,value
2018-03-25T00:01:45.049Z,16.30
2018-03-25T00:04:15.799Z,16.40
2018-03-25T00:06:46.568Z,18.27
2018-03-25T00:09:17.301Z,15.80
2018-03-25T00:11:48.060Z,18.77
2018-03-25T00:14:18.808Z,17.70
2018-03-25T00:16:49.591Z,17.87
2018-03-25T00:19:20.323Z,15.33
2018-03-25T00:21:51.096Z,16.97
2018-03-25T00:24:21.844Z,16.50
2018-03-25T00:26:52.588Z,16.20
2018-03-25T00:29:23.334Z,18.60
2018-03-25T00:31:54.098Z,17.63
2018-03-25T00:34:24.837Z,16.77
2018-03-25T00:36:55.581Z,19.17
2018-03-25T00:39:26.320Z,17.07
2018-03-25T00:41:57.072Z,17.00
2018-03-25T00:44:27.808Z,17.13
2018-03-25T00:46:58.561Z,17.33
2018-03-25T00:49:29.303Z,16.67
2018-03-25T00:52:00.066Z,16.53
2018-03-25T00:54:30.797Z,16.60
2018-03-25T00:57:01.563Z,17.53
2018-03-25T00:59:32.305Z,18.07
2018-03-25T01:02:03.080Z,18.40
2018-03-25T01:04:33.825Z,19.20
2018-03-25T01:07:04.581Z,17.07
2018-03-25T01:09:35.320Z,18.77
2018-03-25T01:12:06.081Z,17.60
2018-03-25T01:14:36.820Z,17.67
2018-03-25T01:17:07.564Z,17.93
2018-03-25T01:19:38.300Z,18.07
2018-03-25T01:22:09.040Z,17.13
2018-03-25T01:24:39.764Z,16.70
2018-03-25T01:27:10.519Z,16.67
2018-03-25T01:29:41.264Z,17.70
2018-03-25T01:32:12.021Z,15.40
2018-03-25T01:34:42.754Z,16.63
2018-03-25T01:37:13.513Z,17.03
2018-03-25T01:39:44.236Z,15.17
2018-03-25T01:42:15.000Z,16.00
2018-03-25T01:44:45.739Z,16.03
2018-03-25T01:47:16.477Z,16.97
2018-03-25T01:49:47.201Z,16.97
2018-03-25T01:52:17.974Z,16.80
2018-03-25T01:54:48.725Z,15.00
2018-03-25T01:57:19.497Z,15.77
2018-03-25T01:59:50.252Z,18.10
2018-03-25T02:02:21.008Z,17.63
2018-03-25T02:04:51.752Z,20.30
2018-03-25T02:07:22.525Z,18.40
2018-03-25T02:09:53.268Z,15.83
2018-03-25T02:12:24.052Z,15.70
2018-03-25T02:14:54.807Z,17.30
2018-03-25T02:17:25.564Z,17.40
2018-03-25T02:19:56.324Z,18.43
2018-03-25T02:22:27.104Z,17.83
2018-03-25T02:24:57.861Z,18.77
2018-03-25T02:27:28.636Z,19.20
2018-03-25T02:29:59.399Z,17.80
2018-03-25T02:32:30.180Z,15.77
2018-03-25T02:35:00.929Z,16.53
2018-03-25T02:37:31.717Z,17.43
2018-03-25T02:40:02.486Z,15.60
2018-03-25T02:42:33.266Z,19.23
2018-03-25T02:45:04.019Z,17.27
2018-03-25T02:47:34.780Z,16.53
2018-03-25T02:50:05.549Z,17.60
2018-03-25T02:52:36.327Z,18.57
2018-03-25T02:55:07.085Z,17.77
2018-03-25T02:57:37.874Z,18.60
2018-03-25T03:00:08.645Z,16.70
2018-03-25T03:02:39.413Z,18.00
2018-03-25T03:05:10.169Z,19.87
2018-03-25T03:07:40.949Z,18.87
2018-03-25T03:10:11.684Z,18.97
2018-03-25T03:12:42.447Z,18.57
2018-03-25T03:15:13.197Z,18.13
2018-03-25T03:17:43.958Z,16.47
2018-03-25T03:20:14.725Z,17.70
2018-03-25T03:22:45.495Z,18.30
2018-03-25T03:25:16.264Z,17.20
2018-03-25T03:27:47.029Z,19.20
2018-03-25T03:30:17.786Z,17.87
2018-03-25T03:32:48.547Z,17.40
2018-03-25T03:35:19.300Z,16.47
2018-03-25T03:37:50.079Z,17.20
2018-03-25T03:40:20.821Z,17.07
2018-03-25T03:42:51.563Z,15.20
2018-03-25T03:45:22.324Z,17.50
2018-03-25T03:47:53.080Z,16.50
2018-03-25T03:50:23.817Z,16.80
2018-03-25T03:52:54.577Z,15.47
2018-03-25T03:55:25.308Z,17.27
2018-03-25T03:57:56.152Z,16.53
2018-03-25T04:00:26.888Z,16.90
2018-03-25T04:02:57.617Z,18.23
2018-03-25T04:05:28.353Z,19.73
2018-03-25T04:07:59.118Z,17.00
2018-03-25T04:10:29.856Z,17.23
2018-03-25T04:13:00.608Z,18.13
2018-03-25T04:15:31.348Z,16.93
2018-03-25T04:18:02.110Z,18.30
2018-03-25T04:20:32.832Z,17.37
2018-03-25T04:23:03.593Z,17.40
2018-03-25T04:25:34.328Z,17.57
2018-03-25T04:28:05.077Z,19.23
2018-03-25T04:30:35.816Z,18.60
2018-03-25T04:33:06.573Z,20.30
2018-03-25T04:35:37.307Z,20.73
2018-03-25T04:38:08.061Z,18.47
2018-03-25T04:40:38.792Z,17.90
2018-03-25T04:43:09.541Z,17.40
2018-03-25T04:45:40.264Z,17.40
2018-03-25T04:48:11.028Z,19.70
2018-03-25T04:50:41.774Z,18.77
2018-03-25T04:53:12.532Z,18.20
2018-03-25T04:55:43.265Z,18.80
2018-03-25T04:58:14.035Z,15.80
2018-03-25T05:00:44.760Z,18.97
2018-03-25T05:03:15.500Z,20.17
2018-03-25T05:05:46.232Z,19.07
2018-03-25T05:08:16.968Z,17.00
2018-03-25T05:10:47.712Z,17.03
2018-03-25T05:13:18.456Z,16.87
2018-03-25T05:15:49.189Z,16.40
2018-03-25T05:18:19.936Z,17.00
2018-03-25T05:20:50.669Z,15.27
2018-03-25T05:23:21.409Z,15.97
2018-03-25T05:25:52.135Z,18.60
2018-03-25T05:28:22.880Z,18.27
2018-03-25T05:30:53.625Z,18.37
2018-03-25T05:33:24.377Z,16.90
2018-03-25T05:35:55.141Z,18.10
2018-03-25T05:38:25.886Z,18.57
2018-03-25T05:40:56.632Z,18.77
2018-03-25T05:43:27.366Z,19.80
2018-03-25T05:45:58.100Z,21.03
2018-03-25T05:48:28.841Z,19.00
2018-03-25T05:50:59.614Z,18.83
2018-03-25T05:53:30.365Z,19.23
2018-03-25T05:56:01.112Z,19.37
2018-03-25T05:58:31.874Z,19.97
2018-03-25T06:01:02.620Z,20.30
2018-03-25T06:03:33.356Z,20.07
2018-03-25T06:06:04.087Z,19.60
2018-03-25T06:08:34.848Z,18.80
2018-03-25T06:11:05.572Z,20.37
2018-03-25T06:13:36.326Z,20.93
2018-03-25T06:16:07.072Z,22.07
2018-03-25T06:18:38.144Z,20.80
2018-03-25T06:21:08.912Z,19.87
2018-03-25T06:23:39.740Z,22.23
2018-03-25T06:26:10.478Z,21.43
2018-03-25T06:28:41.237Z,21.10
2018-03-25T06:31:11.970Z,19.27
2018-03-25T06:33:42.708Z,20.07
2018-03-25T06:36:13.494Z,20.40
2018-03-25T06:38:44.232Z,18.53
2018-03-25T06:41:14.962Z,21.53
2018-03-25T06:43:45.700Z,20.50
2018-03-25T06:46:16.440Z,21.03
2018-03-25T06:48:54.232Z,20.77
2018-03-25T06:51:25.001Z,20.30
2018-03-25T06:53:55.745Z,21.03
2018-03-25T06:56:26.488Z,19.77
2018-03-25T06:58:57.266Z,20.43
2018-03-25T07:01:27.992Z,19.43
2018-03-25T07:03:58.737Z,20.50
2018-03-25T07:06:29.465Z,20.60
2018-03-25T07:09:00.228Z,21.43
2018-03-25T07:11:30.959Z,17.87
2018-03-25T07:14:01.717Z,17.90
2018-03-25T07:16:32.461Z,18.80
2018-03-25T07:19:03.222Z,16.87
2018-03-25T07:21:34.010Z,18.20
2018-03-25T07:24:04.731Z,17.93
2018-03-25T07:26:35.468Z,17.67
2018-03-25T07:29:06.232Z,18.20
2018-03-25T07:31:36.972Z,17.60
2018-03-25T07:34:07.727Z,16.70
2018-03-25T07:36:38.468Z,18.80
2018-03-25T07:39:09.224Z,18.10
2018-03-25T07:41:39.964Z,17.53
2018-03-25T07:44:10.733Z,19.07
2018-03-25T07:46:41.513Z,18.53
2018-03-25T07:49:12.266Z,17.90
2018-03-25T07:51:43.036Z,16.40
2018-03-25T07:54:13.810Z,16.03
2018-03-25T07:56:44.597Z,16.73
2018-03-25T07:59:15.381Z,16.70
2018-03-25T08:01:46.174Z,16.27
2018-03-25T08:04:16.948Z,16.80
2018-03-25T08:20:09.286Z,16.23
2018-03-25T08:22:40.081Z,15.30
2018-03-25T08:25:10.888Z,16.73
2018-03-25T08:27:41.641Z,17.57
2018-03-25T08:30:12.408Z,15.60
2018-03-25T08:32:43.158Z,16.53
2018-03-25T08:35:13.917Z,16.40
2018-03-25T08:37:44.709Z,14.20
2018-03-25T08:40:15.507Z,17.87
2018-03-25T08:42:46.242Z,15.33
2018-03-25T08:45:17.048Z,16.53
2018-03-25T08:47:47.802Z,15.37
2018-03-25T08:50:18.601Z,16.47
2018-03-25T08:52:49.373Z,15.50
2018-03-25T08:55:20.206Z,14.37
2018-03-25T08:57:51.024Z,15.30
2018-03-25T09:00:21.777Z,14.77
2018-03-25T09:02:52.541Z,15.87
2018-03-25T09:05:23.330Z,15.93
2018-03-25T09:07:54.081Z,16.53
2018-03-25T09:10:24.861Z,15.80
2018-03-25T09:12:55.608Z,16.07
2018-03-25T09:15:26.368Z,17.50
2018-03-25T09:17:57.136Z,16.53
2018-03-25T09:20:27.903Z,17.07
2018-03-25T09:22:58.667Z,15.27
2018-03-25T09:25:29.441Z,16.30
2018-03-25T09:28:00.216Z,15.13
2018-03-25T09:30:30.967Z,16.90
2018-03-25T09:33:01.721Z,17.33
2018-03-25T09:35:32.497Z,15.67
2018-03-25T09:38:03.275Z,15.53
2018-03-25T09:40:34.020Z,16.37
2018-03-25T09:43:04.778Z,16.10
2018-03-25T09:45:35.515Z,16.50
2018-03-25T09:48:06.263Z,16.40
2018-03-25T09:50:37.042Z,16.10
2018-03-25T09:53:07.805Z,16.00
2018-03-25T09:55:38.590Z,16.87
2018-03-25T09:58:09.328Z,15.80
2018-03-25T10:00:40.100Z,16.87
2018-03-25T10:03:14.845Z,17.37
2018-03-25T10:05:45.609Z,16.35
2018-03-25T10:08:16.365Z,16.50
2018-03-25T10:10:47.769Z,17.30
2018-03-25T10:13:18.513Z,17.30
2018-03-25T10:15:56.113Z,16.57
2018-03-25T10:18:26.853Z,16.93
2018-03-25T10:20:57.636Z,17.63
2018-03-25T10:23:28.389Z,18.03
2018-03-25T10:25:59.156Z,17.73
2018-03-25T10:28:29.908Z,17.77
2018-03-25T10:31:00.672Z,17.67
2018-03-25T10:33:31.525Z,19.00
2018-03-25T10:36:02.312Z,18.33
2018-03-25T10:38:33.088Z,18.03
2018-03-25T10:41:03.872Z,17.83
2018-03-25T10:43:34.658Z,17.83
2018-03-25T10:46:05.391Z,17.50
2018-03-25T10:48:36.125Z,18.13
2018-03-25T10:51:06.900Z,16.80
2018-03-25T10:53:37.688Z,16.77
2018-03-25T10:56:08.473Z,19.67
2018-03-25T10:58:39.244Z,17.30
2018-03-25T11:01:10.008Z,16.60
2018-03-25T11:03:40.772Z,18.73
2018-03-25T11:06:11.533Z,18.63
2018-03-25T11:08:42.272Z,17.33
2018-03-25T11:11:13.033Z,15.33
2018-03-25T11:13:43.844Z,17.83
2018-03-25T11:16:14.600Z,16.63
2018-03-25T11:18:45.357Z,17.63
2018-03-25T11:21:16.135Z,19.63
2018-03-25T11:23:46.893Z,17.50
2018-03-25T11:26:17.657Z,19.00
2018-03-25T11:28:48.401Z,16.93
2018-03-25T11:31:19.221Z,17.87
2018-03-25T11:33:49.977Z,16.50
2018-03-25T11:36:20.789Z,16.47
2018-03-25T11:38:51.562Z,17.20
2018-03-25T11:41:22.329Z,17.03
2018-03-25T11:43:53.094Z,16.87
2018-03-25T11:46:23.861Z,17.73
2018-03-25T11:48:54.627Z,16.07
2018-03-25T11:51:25.389Z,16.97
2018-03-25T11:53:56.140Z,16.60
2018-03-25T11:56:26.941Z,17.87
2018-03-25T11:58:57.680Z,18.40
2018-03-25T12:01:28.461Z,17.40
2018-03-25T12:03:59.205Z,17.20
2018-03-25T12:06:29.985Z,18.50
2018-03-25T12:09:00.754Z,18.40
2018-03-25T12:11:31.527Z,16.80
2018-03-25T12:14:02.322Z,16.33
2018-03-25T12:16:33.081Z,17.20
2018-03-25T12:19:03.822Z,17.00
2018-03-25T12:21:34.585Z,17.70
2018-03-25T12:24:05.358Z,16.37
2018-03-25T12:26:36.128Z,17.60
2018-03-25T12:29:06.907Z,15.87
2018-03-25T12:31:37.662Z,16.40
2018-03-25T12:34:08.408Z,16.53
2018-03-25T12:36:39.177Z,16.93
2018-03-25T12:39:09.920Z,16.53
2018-03-25T12:41:40.680Z,16.23
2018-03-25T12:44:11.426Z,16.97
2018-03-25T12:46:42.176Z,15.63
2018-03-25T12:49:12.934Z,16.77
2018-03-25T12:51:43.708Z,16.23
2018-03-25T12:54:14.480Z,14.70
2018-03-25T12:56:45.245Z,15.70
2018-03-25T12:59:16.009Z,16.37
2018-03-25T13:01:46.786Z,16.17
2018-03-25T13:04:17.537Z,14.87
2018-03-25T13:06:48.388Z,16.07
2018-03-25T13:09:19.264Z,14.47
2018-03-25T13:11:50.049Z,13.97
2018-03-25T13:14:20.810Z,15.80
2018-03-25T13:16:51.562Z,15.70
2018-03-25T13:19:22.312Z,15.00
2018-03-25T13:21:53.090Z,15.63
2018-03-25T13:24:23.837Z,15.93
2018-03-25T13:26:54.616Z,14.53
2018-03-25T13:29:25.379Z,14.70
2018-03-25T13:31:57.156Z,14.60
2018-03-25T13:34:27.933Z,16.13
2018-03-25T13:36:58.697Z,14.17
2018-03-25T13:39:29.449Z,14.10
2018-03-25T13:42:01.336Z,15.57
2018-03-25T13:44:32.102Z,13.57
2018-03-25T13:47:02.863Z,14.13
2018-03-25T13:49:33.638Z,12.27
2018-03-25T13:52:04.433Z,13.77
2018-03-25T13:54:35.184Z,12.93
2018-03-25T13:57:05.975Z,13.80
2018-03-25T13:59:36.724Z,14.73
2018-03-25T14:02:07.554Z,13.50
2018-03-25T14:04:38.296Z,14.00
2018-03-25T14:07:09.246Z,14.40
2018-03-25T14:09:39.996Z,14.60
2018-03-25T14:12:10.769Z,14.63
2018-03-25T14:14:41.530Z,15.10
2018-03-25T14:17:12.309Z,15.60
2018-03-25T14:19:43.069Z,14.10
2018-03-25T14:22:13.842Z,15.27
2018-03-25T14:24:44.656Z,14.47
2018-03-25T14:27:15.479Z,15.03
2018-03-25T14:29:46.301Z,15.30
2018-03-25T14:32:17.866Z,15.70
2018-03-25T14:34:48.754Z,16.87
2018-03-25T14:37:19.525Z,15.00
2018-03-25T14:39:50.297Z,14.40
2018-03-25T14:42:21.088Z,13.70
2018-03-25T14:44:51.882Z,15.47
2018-03-25T14:47:22.661Z,15.40
2018-03-25T14:49:53.425Z,15.33
2018-03-25T14:52:24.223Z,15.67
2018-03-25T14:54:55.090Z,16.17
2018-03-25T14:57:25.880Z,15.73
2018-03-25T14:59:56.650Z,15.30
2018-03-25T15:02:27.453Z,15.10
2018-03-25T15:04:58.261Z,15.10
2018-03-25T15:07:29.027Z,15.30
2018-03-25T15:09:59.797Z,15.73
2018-03-25T15:12:30.626Z,14.40
2018-03-25T15:15:01.411Z,13.93
2018-03-25T15:17:32.188Z,13.73
2018-03-25T15:20:02.966Z,15.23
2018-03-25T15:22:33.751Z,13.53
2018-03-25T15:25:04.857Z,14.27
2018-03-25T15:27:35.718Z,14.10
2018-03-25T15:30:06.481Z,13.50
2018-03-25T15:32:37.266Z,14.00
2018-03-25T15:35:08.031Z,14.97
2018-03-25T15:37:38.809Z,13.43
2018-03-25T15:40:09.581Z,15.80
2018-03-25T15:42:40.385Z,16.63
2018-03-25T15:45:11.196Z,14.17
2018-03-25T15:47:41.948Z,14.70
2018-03-25T15:50:12.725Z,14.23
2018-03-25T15:52:43.828Z,13.43
2018-03-25T15:55:14.600Z,13.80
2018-03-25T15:57:45.389Z,14.00
2018-03-25T16:00:16.166Z,11.90
2018-03-25T16:02:46.954Z,12.80
2018-03-25T16:05:17.720Z,12.97
2018-03-25T16:07:48.524Z,13.50
2018-03-25T16:10:19.283Z,13.10
2018-03-25T16:12:50.052Z,13.00
2018-03-25T16:15:20.813Z,12.93
2018-03-25T16:17:51.686Z,12.60
2018-03-25T16:20:22.455Z,12.50
2018-03-25T16:22:53.284Z,11.37
2018-03-25T16:25:24.162Z,12.70
2018-03-25T16:27:54.954Z,12.97
2018-03-25T16:30:25.732Z,13.23
2018-03-25T16:32:56.537Z,12.70
2018-03-25T16:35:27.298Z,13.10
2018-03-25T16:37:58.082Z,13.80
2018-03-25T16:40:28.824Z,12.57
2018-03-25T16:42:59.618Z,13.73
2018-03-25T16:45:30.385Z,12.97
2018-03-25T16:48:01.174Z,11.53
2018-03-25T16:50:31.920Z,13.00
2018-03-25T16:53:02.698Z,12.30
2018-03-25T16:55:33.436Z,13.17
2018-03-25T16:58:04.208Z,13.37
2018-03-25T17:00:34.953Z,12.50
2018-03-25T17:03:05.724Z,13.33
2018-03-25T17:05:36.461Z,13.90
2018-03-25T17:08:07.235Z,12.50
2018-03-25T17:10:37.986Z,12.87
2018-03-25T17:13:08.735Z,12.87
2018-03-25T17:15:39.492Z,11.63
2018-03-25T17:18:10.249Z,12.10
2018-03-25T17:20:41.506Z,14.10
2018-03-25T17:23:12.279Z,12.02
2018-03-25T17:25:43.048Z,12.40
2018-03-25T17:28:13.818Z,12.40
2018-03-25T17:30:44.588Z,13.70
2018-03-25T17:33:15.353Z,12.33
2018-03-25T17:35:46.100Z,13.43
2018-03-25T17:38:16.865Z,13.33
2018-03-25T17:40:48.709Z,12.43
2018-03-25T17:43:19.477Z,13.23
2018-03-25T17:45:50.234Z,12.67
2018-03-25T17:48:21.957Z,13.03
2018-03-25T17:50:52.740Z,14.23
2018-03-25T17:53:23.605Z,12.47
2018-03-25T17:55:54.434Z,13.27
2018-03-25T17:58:26.207Z,13.43
2018-03-25T18:00:56.966Z,14.10
2018-03-25T18:03:27.726Z,13.30
2018-03-25T18:05:58.461Z,12.73
2018-03-25T18:08:29.237Z,12.77
2018-03-25T18:10:59.980Z,13.77
2018-03-25T18:13:30.742Z,14.40
2018-03-25T18:16:01.518Z,15.20
2018-03-25T18:18:32.377Z,12.23
2018-03-25T18:21:04.152Z,13.80
2018-03-25T18:23:34.913Z,14.40
2018-03-25T18:26:05.659Z,14.27
2018-03-25T18:28:36.417Z,13.80
2018-03-25T18:31:09.237Z,13.70
2018-03-25T18:33:40.021Z,14.93
2018-03-25T18:36:10.774Z,14.50
2018-03-25T18:38:41.526Z,15.10
2018-03-25T18:41:12.948Z,14.77
2018-03-25T18:43:43.699Z,15.80
2018-03-25T18:46:14.440Z,15.00
2018-03-25T18:48:47.797Z,16.17
2018-03-25T18:51:18.557Z,17.67
2018-03-25T18:53:49.319Z,16.00
2018-03-25T18:56:20.069Z,16.10
2018-03-25T18:58:50.824Z,14.50
2018-03-25T19:01:21.560Z,15.30
2018-03-25T19:03:52.324Z,15.23
2018-03-25T19:06:23.056Z,15.90
2018-03-25T19:08:53.800Z,15.67
2018-03-25T19:11:24.561Z,15.47
2018-03-25T19:13:55.308Z,15.70
2018-03-25T19:16:26.040Z,15.50
2018-03-25T19:18:56.807Z,14.50
2018-03-25T19:21:27.537Z,16.47
2018-03-25T19:23:58.302Z,15.70
2018-03-25T19:26:29.038Z,14.80
2018-03-25T19:28:59.798Z,14.07
2018-03-25T19:31:30.545Z,15.40
2018-03-25T19:34:01.321Z,14.73
2018-03-25T19:36:32.066Z,15.40
2018-03-25T19:39:02.890Z,15.33
2018-03-25T19:41:33.629Z,14.40
2018-03-25T19:44:04.399Z,15.57
2018-03-25T19:46:35.161Z,14.80
2018-03-25T19:49:05.910Z,16.00
2018-03-25T19:51:36.676Z,15.00
2018-03-25T19:54:07.464Z,16.10
2018-03-25T19:56:39.225Z,16.30
2018-03-25T19:59:10.025Z,15.88
2018-03-25T20:01:40.797Z,15.60
2018-03-25T20:04:11.568Z,17.10
2018-03-25T20:06:42.383Z,17.03
2018-03-25T20:09:13.197Z,15.83
2018-03-25T20:11:43.962Z,15.87
2018-03-25T20:14:14.726Z,15.33
2018-03-25T20:16:45.485Z,15.10
2018-03-25T20:19:16.294Z,15.40
2018-03-25T20:21:47.060Z,15.20
2018-03-25T20:24:17.839Z,17.13
2018-03-25T20:26:48.609Z,16.47
2018-03-25T20:29:19.401Z,16.93
2018-03-25T20:31:50.152Z,17.30
2018-03-25T20:34:20.930Z,15.30
2018-03-25T20:36:51.681Z,16.00
2018-03-25T20:39:22.457Z,15.50
2018-03-25T20:41:53.212Z,17.23
2018-03-25T20:44:23.980Z,17.97
2018-03-25T20:46:54.738Z,16.50
2018-03-25T20:49:31.579Z,15.20
2018-03-25T20:52:03.932Z,17.33
2018-03-25T20:54:34.705Z,14.40
2018-03-25T20:57:05.466Z,16.00
2018-03-25T20:59:36.480Z,13.83
2018-03-25T21:02:07.212Z,14.85
2018-03-25T21:04:37.970Z,15.50
2018-03-25T21:07:09.840Z,15.37
2018-03-25T21:09:40.604Z,15.63
2018-03-25T21:12:11.341Z,13.50
2018-03-25T21:14:42.098Z,16.83
2018-03-25T21:17:12.861Z,14.80
2018-03-25T21:19:43.626Z,16.90
2018-03-25T21:22:14.377Z,15.90
2018-03-25T21:24:45.300Z,14.30
2018-03-25T21:27:16.057Z,16.83
2018-03-25T21:29:46.889Z,16.70
2018-03-25T21:32:17.663Z,18.33
2018-03-25T21:34:49.525Z,17.17
2018-03-25T21:37:20.476Z,15.07
2018-03-25T21:39:51.233Z,16.80
2018-03-25T21:42:21.966Z,16.30
2018-03-25T21:44:52.716Z,16.37
2018-03-25T21:47:23.457Z,17.00
2018-03-25T21:49:54.212Z,15.93
2018-03-25T21:52:24.965Z,14.43
2018-03-25T21:54:55.730Z,16.60
2018-03-25T21:57:26.477Z,15.10
2018-03-25T21:59:57.263Z,14.83
2018-03-25T22:02:28.001Z,13.80
2018-03-25T22:04:58.762Z,14.93
2018-03-25T22:07:30.548Z,14.93
2018-03-25T22:10:01.319Z,15.10
2018-03-25T22:12:32.058Z,15.23
2018-03-25T22:15:02.851Z,16.10
2018-03-25T22:17:33.585Z,15.30
2018-03-25T22:20:04.374Z,14.70
2018-03-25T22:22:35.113Z,14.40
2018-03-25T22:25:05.884Z,15.83
2018-03-25T22:27:36.620Z,14.60
2018-03-25T22:30:07.361Z,15.03
2018-03-25T22:32:38.125Z,14.93
2018-03-25T22:35:08.889Z,15.63
2018-03-25T22:37:39.674Z,14.57
2018-03-25T22:40:10.609Z,15.03
2018-03-25T22:42:41.529Z,14.80
2018-03-25T22:45:12.366Z,15.70
2018-03-25T22:47:43.114Z,14.17
2018-03-25T22:50:13.876Z,16.07
2018-03-25T22:52:44.627Z,13.80
2018-03-25T22:55:15.389Z,14.73
2018-03-25T22:57:46.144Z,13.20
2018-03-25T23:00:16.914Z,14.60
2018-03-25T23:02:47.665Z,14.10
2018-03-25T23:05:18.484Z,15.63
2018-03-25T23:07:49.232Z,15.73
2018-03-25T23:10:20.045Z,16.00
2018-03-25T23:12:50.804Z,14.33
2018-03-25T23:15:21.576Z,15.13
2018-03-25T23:17:52.315Z,15.50
2018-03-25T23:20:23.082Z,15.53
2018-03-25T23:22:53.833Z,15.00
2018-03-25T23:25:24.576Z,16.30
2018-03-25T23:27:55.309Z,15.77
2018-03-25T23:30:26.070Z,17.13
2018-03-25T23:32:56.833Z,15.83
2018-03-25T23:35:27.585Z,15.50
2018-03-25T23:37:58.328Z,14.37
2018-03-25T23:40:29.094Z,15.93
2018-03-25T23:42:59.820Z,15.57
2018-03-25T23:45:30.590Z,16.40
2018-03-25T23:48:01.321Z,16.30
2018-03-25T23:50:32.122Z,14.60
2018-03-25T23:53:02.879Z,15.73
2018-03-25T23:55:33.673Z,16.37
2018-03-25T23:58:04.562Z,15.10
